Tiempo atmosférico en la estación meteorológica de Alicante/Alacant, Alacant/Alicante (81 m.)



Fecha
DESCASC
Temp. máxima en grados centígrados (hora)
DESCASC
Temp. mínima en grados centígrados (hora)
DESCASC
Temp. media en grados centígrados
DESCASC
Racha de viento máxima en m/sg (hora)
DESCASC
Velocidad máxima media en intervalos de 10 minutos(hora)
DESCASC
Precipitaciones diarias en mm
DESCASC
Precipitaciones de 00:00 a 06:00 en mm
DESCASC
Precipitaciones de 06:00 a 12:00 en mm
DESCASC
Precipitaciones de 12:00 a 18:00 en mm
DESCASC
Precipitaciones de 18:00 a 24:00 en mm
DESCASC
11-12-2019 22.1 (14:30) 5.2 (05:20) 13.7 15.83 (15:30) 7.5 (19:40) 0 0 0 0 0
10-12-2019 19.6 (12:50) 7.3 (23:59) 13.5 6.94 (14:20) 3.89 (14:10) 0 0 0 0 0
09-12-2019 20.7 (15:20) 12.8 (05:20) 16.8 9.17 (13:00) 4.72 (07:30) 0 0 0 0 0
08-12-2019 18.1 (14:40) 5.7 (00:00) 11.9 5.56 (20:10) 2.5 (20:10) 0 0 0 0 0
07-12-2019 18.2 (14:10) 7 (00:00) 12.6 4.72 (15:00) 2.78 (15:00) 0 0 0 0 0
06-12-2019 18.2 (13:10) 9.6 (00:00) 13.9 4.44 (14:40) 2.5 (14:20) 0 0 0 0 0
05-12-2019 17.1 (14:10) 9.6 (00:00) 13.4 5.28 (11:10) 3.33 (11:10) 0 0 0 0 0
04-12-2019 15.5 (15:40) 9.8 (00:00) 12.7 9.17 (00:10) 5 (00:50) 20 17.4 2.6 0 0
03-12-2019 13.7 (11:20) 10.6 (00:00) 12.2 13.61 (09:30) 6.67 (20:10) 14.2 10 0 4.2 0
02-12-2019 16.2 (14:10) 11.5 (00:00) 13.9 10.83 (22:10) 6.11 (22:10) 16.6 0.4 2.8 2 11.4
01-12-2019 21.5 (13:20) 8.6 (00:00) 15.1 6.39 (15:50) 4.17 (15:20) 0 0 0 0 0
30-11-2019 22.5 (14:00) 11 (00:00) 16.8 7.22 (15:20) 3.89 (15:10) 0 0 0 0 0
29-11-2019 22.9 (12:50) 12.2 (00:00) 17.5 9.44 (13:30) 4.72 (13:30) 0 0 0 0 0
28-11-2019 21.7 (13:50) 11.5 (00:00) 16.6 9.17 (11:30) 3.89 (11:10) 0 0 0 0 0
27-11-2019 23.2 (15:30) 11.4 (00:00) 17.3 10.56 (13:20) 5.56 (18:30) 0 0 0 0 0
26-11-2019 23.8 (14:30) 12.6 (00:00) 18.2 8.89 (16:00) 3.89 (16:10) 0 0 0 0 0
25-11-2019 23.3 (14:50) 11.9 (00:00) 17.6 12.5 (03:00) 5.56 (04:20) 0 0 0 0 0
24-11-2019 17.5 (14:00) 10.9 (00:00) 14.2 15.28 (03:40) 8.06 (03:50) 0 0 0 0 0
23-11-2019 16.7 (13:20) 9.4 (00:00) 13.1 15.83 (21:50) 6.39 (12:10) 0.2 0.2 0 0 0
22-11-2019 14.1 (14:00) 8 (00:00) 11.1 3.61 (19:00) 1.67 (19:00) 14.4 0.2 0.2 3 11
21-11-2019 16.6 (16:00) 7.2 (00:00) 11.9 5 (17:00) 2.78 (16:50) 0.8 0 0 0 0.8
20-11-2019 17.3 (13:20) 6.1 (00:00) 11.7 5.83 (13:30) 3.61 (13:50) 0.6 0 0 0 0.6
19-11-2019 17.4 (15:50) 6.3 (00:00) 11.8 7.78 (10:40) 3.89 (10:40) 0 0 0 0 0
18-11-2019 18.5 (13:00) 8.2 (00:00) 13.3 7.5 (14:40) 4.72 (14:40) 5.8 5.8 0 0 0
17-11-2019 17.9 (14:30) 6.9 (00:00) 12.4 10 (01:30) 5 (13:20) 0.6 0 0 0 0.6
16-11-2019 17.3 (14:30) 8.1 (00:00) 12.7 10.83 (23:59) 4.72 (23:40) 0 0 0 0 0
15-11-2019 16 (14:40) 8.1 (00:00) 12.1 10 (11:20) 4.72 (13:30) 0 0 0 0 0

Gráficas

Temp. máximas Temp. mínimas Temp. medias Precipitaciones Rachas de viento máximas Velocidades máximas media en intervalos de 10 minutos

Datos horarios

Fecha y hora oficial Temperatura (ºC) Velocidad del viento (km/h) Dirección del viento Racha (km/h) Dirección de racha Precipitación (mm) Presión (hPa) Tendencia (hPa) Humedad (%)
2019-12-14 23:00:00 9.9 4 Oeste 9 Oeste 0 1007.5 0.4 69
2019-12-14 22:00:00 10.1 4 Oeste 7 Oeste 0 1007.5 0.6 70
2019-12-14 21:00:00 10.9 3 Sudoeste 8 Sudoeste 0 1007.4 0.7 67
2019-12-14 20:00:00 12.2 4 Sudoeste 8 Noroeste 0 1007.1 0.8 64
2019-12-14 19:00:00 13.8 4 Noroeste 9 Noroeste 0 1006.9 0.7 58
2019-12-14 18:00:00 15.8 6 Noroeste 13 Norte 0 1006.7 0.5 51
2019-12-14 17:00:00 17.5 5 Noroeste 11 Norte 0 1006.3 -0.2 50
2019-12-14 16:00:00 18.3 7 Este 11 Norte 0 1006.2 -0.7 52
2019-12-14 15:00:00 20 7 Norte 19 Noroeste 0 1006.2 -1.1 41
2019-12-14 14:00:00 19.4 12 Noroeste 28 Noroeste 0 1006.5 -0.8 44
2019-12-14 13:00:00 19.2 14 Noroeste 28 Noroeste 0 1006.9 0.3 43
2019-12-14 12:00:00 18.9 12 Noroeste 28 Noroeste 0 1007.3 1.2 44
2019-12-14 11:00:00 17.6 13 Noroeste 24 Noroeste 0 1007.3 1.4 47
2019-12-14 10:00:00 15.8 6 Noroeste 22 Noroeste 0 1006.6 1.1 52
2019-12-14 09:00:00 13.5 8 Noroeste 18 Noroeste 0 1006.1 0.6 57
2019-12-14 08:00:00 12.1 6 Noroeste 14 Noroeste 0 1005.9 0.1 63
2019-12-14 07:00:00 12.6 4 Oeste 17 Oeste 0 1005.5 -0.5 62
2019-12-14 06:00:00 14.5 4 Oeste 22 Noroeste 0 1005.5 -0.1 55
2019-12-14 05:00:00 15.6 13 Oeste 38 Oeste 0 1005.8 0.6 52
2019-12-14 04:00:00 16 12 Oeste 38 Oeste 0 1006 0.9 53
2019-12-14 03:00:00 16.1 12 Oeste 40 Oeste 0 1005.6 1 51
2019-12-14 02:00:00 16.5 13 Oeste 36 Oeste 0 1005.2 0.2 52
2019-12-14 01:00:00 16.7 8 Sudoeste 34 Oeste 0 1005.1 0.2 52
2019-12-14 00:00:00 17.5 14 Oeste 44 Oeste 0 1004.6 -0.5 50
2019-12-13 23:00:00 17.7 6 Oeste 23 Oeste 0 1005 0.4 50
2019-12-13 22:00:00 17.7 11 Oeste 29 Oeste 0 1004.9 0.7 50
2019-12-13 21:00:00 17.8 8 Oeste 32 Noroeste 0 1005.1 0.8 50
2019-12-13 20:00:00 18.2 15 Noroeste 42 Oeste 0 1004.6 0.7 48
2019-12-13 19:00:00 18.3 14 Noroeste 34 Noroeste 0 1004.2 1.1 47
2019-12-13 18:00:00 18.5 13 Noroeste 38 Oeste 0 1004.3 1.3 48
2019-12-13 17:00:00 19.1 13 Oeste 34 Oeste 0 1003.9 1.2 46
2019-12-13 16:00:00 19.4 14 Oeste 40 Oeste 0 1003.1 0.1 44
2019-12-13 15:00:00 19.1 11 Oeste 35 Noroeste 0 1003 -0.3 45
2019-12-13 14:00:00 18.9 16 Oeste 44 Oeste 0 1002.7 -0.3 44
2019-12-13 13:00:00 18.8 15 Oeste 41 Oeste 0 1003 0.7 45
2019-12-13 12:00:00 18.2 9 Oeste 28 Oeste 0 1003.3 1.4 48
2019-12-13 11:00:00 17.7 14 Oeste 36 Oeste 0 1003 1.7 51
2019-12-13 10:00:00 17.2 13 Oeste 32 Oeste 0 1002.3 0.9 54
2019-12-13 09:00:00 16.6 8 Oeste 25 Oeste 0 1001.9 1.1 58
2019-12-13 08:00:00 16 9 Oeste 22 Oeste 0 1001.3 0.7 59
2019-12-13 07:00:00 15.6 4 Sudoeste 23 Oeste 0 1001.4 0.1 60
2019-12-13 06:00:00 15.8 11 Oeste 30 Sudoeste 0 1000.8 -0.9 58
2019-12-13 05:00:00 15.2 10 Oeste 33 Sudoeste 0 1000.6 -1.3 59
2019-12-13 04:00:00 15.2 10 Oeste 25 Sudoeste 0 1001.3 -1.5 58
2019-12-13 03:00:00 13.6 7 Sur 19 Sudoeste 0 1001.7 -1.2 59
2019-12-13 02:00:00 13.9 12 Sudoeste 23 Sudoeste 0 1001.9 -1.6 56
2019-12-13 01:00:00 14 10 Sudoeste 34 Sudoeste 0 1002.8 -1.4 56
2019-12-13 00:00:00 13.6 10 Sudoeste 25 Oeste 0 1002.9 -1.5 55
2019-12-12 23:00:00 14.4 11 Sudoeste 35 Sudoeste 0 1003.5 -1.3 52
2019-12-12 22:00:00 13.5 13 Sudoeste 28 Sudoeste 0 1004.2 -1.1 52
2019-12-12 21:00:00 13.7 16 Sudoeste 30 Sudoeste 0 1004.4 -1.6 50
2019-12-12 20:00:00 13.4 14 Sudoeste 32 Sudoeste 0 1004.8 -1.7 50
2019-12-12 19:00:00 13.5 13 Oeste 28 Oeste 0 1005.3 -1.5 50
2019-12-12 18:00:00 13.5 9 Sudoeste 21 Oeste 0 1006 -1 49
2019-12-12 17:00:00 13.6 12 Oeste 33 Noroeste 0 1006.5 -1.5 47
2019-12-12 16:00:00 14.3 14 Oeste 33 Noroeste 0 1006.8 -2.8 44
2019-12-12 15:00:00 14.9 7 Noroeste 31 Noroeste 0 1007 -3.8 45
2019-12-12 14:00:00 16.4 11 Noroeste 26 Noroeste 0 1008 -3.3 38
2019-12-12 13:00:00 15.3 5 Oeste 23 Noroeste 0 1009.6 -1.5 43
2019-12-12 12:00:00 14.3 10 Noroeste 45 Noroeste 0 1010.8 -0.4 45
2019-12-12 11:00:00 13 15 Noroeste 46 Noroeste 0 1011.3 0.3 48
2019-12-12 10:00:00 12.9 18 Oeste 37 Sudoeste 0 1011.1 0 48
2019-12-12 09:00:00 10.5 9 Noroeste 26 Oeste 0 1011.2 -0.3 54
2019-12-12 08:00:00 10.3 6 Este 19 Nordeste 0 1011 -0.3 55
2019-12-12 07:00:00 11.2 5 Noroeste 19 Noroeste 0 1011.1 -0.6 50
2019-12-12 06:00:00 10.7 7 Noroeste 15 Norte 0 1011.5 -0.7 49
2019-12-12 05:00:00 10.4 7 Noroeste 20 Noroeste 0 1011.3 -1.2 48
2019-12-12 04:00:00 8.2 5 Norte 9 Noroeste 0 1011.7 -1.4 59
2019-12-12 03:00:00 8.6 2 Noroeste 17 Nordeste 0 1012.2 -1.1 61
2019-12-12 02:00:00 9.6 4 Oeste 14 Norte 0 1012.5 -0.7 55
2019-12-12 01:00:00 10.6 3 Oeste 16 Norte 0 1013.1 0.3 52
2019-12-12 00:00:00 12.1 10 Noroeste 30 Oeste 0 1013.3 1.1 44
2019-12-11 23:00:00 12.5 9 Oeste 44 Noroeste 0 1013.2 2.3 45
2019-12-11 22:00:00 11.4 10 Noroeste 28 Noroeste 0 1012.8 2.3 49
2019-12-11 21:00:00 12.2 5 Sudeste 17 Noroeste 0 1012.2 2.9 52
2019-12-11 20:00:00 13.6 17 Noroeste 53 Noroeste 0 1010.9 2.6 48
2019-12-11 19:00:00 13.5 13 Noroeste 35 Noroeste 0 1010.5 3 52
2019-12-11 18:00:00 15.4 14 Noroeste 34 Oeste 0 1009.3 1.5 47
2019-12-11 17:00:00 17.2 15 Oeste 43 Oeste 0 1008.3 0.2 45
2019-12-11 16:00:00 18.2 16 Oeste 57 Oeste 0 1007.5 -1.2 40
2019-12-11 15:00:00 20.6 17 Noroeste 37 Noroeste 0 1007.8 -1.9 33
2019-12-11 14:00:00 21.6 9 Oeste 31 Sudoeste 0 1008.1 -2.2 24
2019-12-11 13:00:00 20 12 Oeste 36 Oeste 0 1008.7 -1.8 25
2019-12-11 12:00:00 17.3 12 Oeste 32 Noroeste 0 1009.7 -0.8 30
2019-12-11 11:00:00 17.2 11 Oeste 33 Oeste 0 1010.3 -0.3 27
2019-12-11 10:00:00 11.9 7 Oeste 12 Oeste 0 1010.5 -0.1 44
2019-12-11 09:00:00 11 6 Oeste 22 Noroeste 0 1010.5 -0.2 43
2019-12-11 08:00:00 7.2 5 Noroeste 9 Oeste 0 1010.6 -0.8 61
2019-12-11 07:00:00 7.1 5 Oeste 15 Noroeste 0 1010.6 -1.2 58
2019-12-11 06:00:00 5.4 5 Noroeste 9 Noroeste 0 1010.7 -1.3 79
2019-12-11 05:00:00 5.5 2 Oeste 7 Norte 0 1011.4 -1 89
2019-12-11 04:00:00 5.9 5 Norte 9 Norte 0 1011.8 -1 88
2019-12-11 03:00:00 6.1 3 Noroeste 7 Noroeste 0 1012 -1.4 84
2019-12-11 02:00:00 6.5 3 Noroeste 8 Noroeste 0 1012.4 -1.1 83
2019-12-11 01:00:00 6.8 3 Noroeste 6 Noroeste 0 1012.8 -0.8 84
2019-12-11 00:00:00 7.3 4 Noroeste 6 Norte 0 1013.4 -0.4 85
2019-12-10 23:00:00 8.1 4 Norte 10 Nordeste 0 1013.5 -0.3 83
2019-12-10 22:00:00 8.5 3 Nordeste 6 Nordeste 0 1013.6 -0.1 84
2019-12-10 21:00:00 9.8 4 Norte 8 Norte 0 1013.8 -0.2 83
2019-12-10 20:00:00 10.4 2 Sudoeste 8 Oeste 0 1013.8 -0.7 83
2019-12-10 19:00:00 11.7 5 Oeste 10 Oeste 0 1013.7 -1.1 80
2019-12-10 18:00:00 13.1 5 Sudoeste 7 Oeste 0 1014 -1 72
2019-12-10 17:00:00 15.1 2 Oeste 10 Sudeste 0 1014.5 -0.8 62
2019-12-10 16:00:00 16.3 6 Sudeste 18 Sudeste 0 1014.8 -0.7 59
2019-12-10 15:00:00 17 9 Este 25 Este 0 1015 -0.8 54
2019-12-10 14:00:00 18.2 13 Nordeste 22 Nordeste 0 1015.3 -0.7 45
2019-12-10 13:00:00 18.6 9 Sudeste 15 Sudeste 0 1015.5 -0.3 40
2019-12-10 12:00:00 17.8 3 Este 7 Este 0 1015.8 0.3 31
2019-12-10 11:00:00 15.2 5 Nordeste 9 Nordeste 0 1016 1 46
2019-12-10 10:00:00 11.5 2 Este 9 Sudeste 0 1015.8 1.2 52
2019-12-10 09:00:00 9.1 4 Sudeste 13 Oeste 0 1015.5 0.9 52
2019-12-10 08:00:00 8.2 4 Noroeste 11 Noroeste 0 1015 -0.5 55
2019-12-10 07:00:00 9.8 6 Oeste 15 Noroeste 0 1014.6 -1.1 46
2019-12-10 06:00:00 9.9 5 Oeste 19 Norte 0 1014.6 -1.5 49
2019-12-10 05:00:00 9.4 4 Noroeste 12 Noroeste 0 1015.5 -0.8 52
2019-12-10 04:00:00 10.3 5 Noroeste 10 Noroeste 0 1015.7 -0.4 50
2019-12-10 03:00:00 12.9 5 Noroeste 20 Noroeste 0 1016.1 -0.6 40
2019-12-10 02:00:00 13.2 4 Noroeste 21 Noroeste 0 1016.3 0 41
2019-12-10 01:00:00 13.7 12 Noroeste 22 Noroeste 0 1016.1 -0.8 36
2019-12-10 00:00:00 14.8 5 Noroeste 28 Noroeste 0 1016.7 0.5 35
2019-12-09 23:00:00 14.5 11 Noroeste 19 Norte 0 1016.3 0.2 36
2019-12-09 22:00:00 14.4 7 Norte 19 Norte 0 1016.9 1.4 39
2019-12-09 21:00:00 15.4 10 Noroeste 21 Norte 0 1016.2 1.8 35
2019-12-09 20:00:00 15.4 10 Noroeste 24 Este 0 1016.1 1.8 34
2019-12-09 19:00:00 16 3 Sudeste 21 Noroeste 0 1015.5 1.7 36
2019-12-09 18:00:00 17 9 Noroeste 24 Noroeste 0 1014.4 0.9 36
2019-12-09 17:00:00 17.4 9 Noroeste 23 Oeste 0 1014.3 0.5 35
2019-12-09 16:00:00 18.9 10 Oeste 23 Oeste 0 1013.8 -0.8 36
2019-12-09 15:00:00 20.4 10 Oeste 32 Noroeste 0 1013.5 -2 32
2019-12-09 14:00:00 20 16 Noroeste 33 Noroeste 0 1013.8 -1.9 33
2019-12-09 13:00:00 20.4 12 Oeste 33 Noroeste 0 1014.6 -0.9 32
2019-12-09 12:00:00 19.2 8 Sudoeste 16 Noroeste 0 1015.5 0.8 37
2019-12-09 11:00:00 17.1 12 Noroeste 26 Norte 0 1015.7 1.7 36
2019-12-09 10:00:00 15.2 11 Noroeste 18 Noroeste 0 1015.5 1.9 43
2019-12-09 09:00:00 13.6 6 Oeste 22 Noroeste 0 1014.7 1.2 52
2019-12-09 08:00:00 15 13 Noroeste 32 Noroeste 0 1014 1.5 45
2019-12-09 07:00:00 13.7 8 Noroeste 29 Noroeste 0 1013.6 1.2 60
2019-12-09 06:00:00 13.8 13 Noroeste 26 Norte 0 1013.5 1.1 65
2019-12-09 05:00:00 13.2 10 Noroeste 24 Noroeste 0 1012.5 0.2 72
2019-12-09 04:00:00 14.3 8 Noroeste 31 Noroeste 0 1012.4 -0.4 68
2019-12-09 03:00:00 15.6 9 Oeste 28 Noroeste 0 1012.4 -0.3 66
2019-12-09 02:00:00 15.4 8 Noroeste 22 Noroeste 0 1012.3 -0.2 63
2019-12-09 01:00:00 13.8 6 Oeste 15 Sudoeste 0 1012.8 0.2 69
2019-12-09 00:00:00 13.4 6 Sudoeste 14 Sudoeste 0 1012.7 0.1 67
2019-12-08 23:00:00 13.2 6 Noroeste 15 Noroeste 0 1012.5 0 66
2019-12-08 22:00:00 13.9 7 Noroeste 14 Noroeste 0 1012.6 0.4 63
2019-12-08 21:00:00 15.1 8 Oeste 20 Oeste 0 1012.6 0.5 61
2019-12-08 20:00:00 12.8 6 Oeste 17 Noroeste 0 1012.5 0.5 68
2019-12-08 19:00:00 12.2 4 Noroeste 9 Noroeste 0 1012.2 0.2 80
2019-12-08 18:00:00 13.7 3 Norte 8 Nordeste 0 1012.1 0 75
2019-12-08 17:00:00 15.6 4 Nordeste 10 Este 0 1012 -0.7 67
2019-12-08 16:00:00 17.3 4 Sudeste 11 Sudeste 0 1012 -1.7 55
2019-12-08 15:00:00 17.5 6 Sudeste 14 Sudeste 0 1012.1 -2.4 59
2019-12-08 14:00:00 17.6 4 Este 13 Nordeste 0 1012.7 -1.9 60
2019-12-08 13:00:00 16.6 7 Nordeste 13 Sudeste 0 1013.7 -0.5 61
2019-12-08 12:00:00 15.3 6 Sudeste 12 Sudeste 0 1014.5 0.6 60
2019-12-08 11:00:00 13.1 5 Sudeste 8 Sudeste 0 1014.6 0.9 68
2019-12-08 10:00:00 9.3 0 Calma 9 Noroeste 0 1014.2 0.9 89
2019-12-08 09:00:00 6.2 3 Noroeste 6 Noroeste 0 1013.9 0.7 96
2019-12-08 08:00:00 5.8 3 Noroeste 6 Norte 0 1013.7 0.3 95
2019-12-08 07:00:00 6.3 4 Norte 6 Noroeste 0 1013.3 -0.4 95
2019-12-08 06:00:00 6.4 2 Noroeste 8 Oeste 0 1013.2 -0.8 93
2019-12-08 05:00:00 6.8 5 Oeste 9 Oeste 0 1013.4 -0.9 93
2019-12-08 04:00:00 7.1 4 Noroeste 10 Noroeste 0 1013.7 -0.9 94
2019-12-08 03:00:00 7.3 3 Noroeste 6 Oeste 0 1014 -1 93
2019-12-08 02:00:00 7.8 3 Noroeste 10 Noroeste 0 1014.3 -0.6 91
2019-12-08 01:00:00 8.3 3 Noroeste 9 Noroeste 0 1014.6 -0.1 92
2019-12-08 00:00:00 8.8 4 Noroeste 10 Oeste 0 1015 0.7 90
2019-12-07 23:00:00 8.7 4 Noroeste 7 Noroeste 0 1014.9 0.8 92
2019-12-07 22:00:00 9.2 2 Oeste 7 Noroeste 0 1014.7 1.1 90
2019-12-07 21:00:00 10 3 Noroeste 8 Oeste 0 1014.3 1 89
2019-12-07 20:00:00 10.9 2 Oeste 4 Oeste 0 1014.1 1 87
2019-12-07 19:00:00 12.1 2 Noroeste 4 Noroeste 0 1013.6 0.8 83
2019-12-07 18:00:00 13.8 3 Nordeste 10 Este 0 1013.3 0.9 80
2019-12-07 17:00:00 15.1 4 Este 12 Sudeste 0 1013.1 0.3 72
2019-12-07 16:00:00 16.6 5 Sudeste 13 Este 0 1012.8 -0.8 63
2019-12-07 15:00:00 17.2 10 Este 17 Este 0 1012.4 -1.6 55
2019-12-07 14:00:00 17.9 5 Nordeste 13 Este 0 1012.8 -1.4 54
2019-12-07 13:00:00 17.6 4 Sur 10 Sudoeste 0 1013.6 -0.2 56
2019-12-07 12:00:00 16.7 5 Sur 9 Sudoeste 0 1014 0.5 61
2019-12-07 11:00:00 14.6 3 Oeste 6 Oeste 0 1014.2 1 67
2019-12-07 10:00:00 11 4 Noroeste 8 Noroeste 0 1013.8 0.7 83
2019-12-07 09:00:00 7.6 4 Noroeste 9 Noroeste 0 1013.5 0.7 92
2019-12-07 08:00:00 7.1 3 Noroeste 8 Noroeste 0 1013.2 0.3 93
2019-12-07 07:00:00 7.1 3 Noroeste 8 Noroeste 0 1013.1 0 94
2019-12-07 06:00:00 7.1 4 Noroeste 6 Norte 0 1012.8 -0.7 94
2019-12-07 05:00:00 7.3 3 Noroeste 5 Noroeste 0 1012.9 -0.3 92
2019-12-07 04:00:00 7.9 3 Noroeste 8 Norte 0 1013.1 -0.3 93
2019-12-07 03:00:00 8.1 4 Noroeste 6 Noroeste 0 1013.5 -0.1 91
2019-12-07 02:00:00 8.8 3 Noroeste 6 Noroeste 0 1013.2 -0.4 89
2019-12-07 01:00:00 9.5 4 Oeste 10 Noroeste 0 1013.4 0 87
2019-12-07 00:00:00 10.1 5 Noroeste 12 Noroeste 0 1013.6 0.4 86
2019-12-06 23:00:00 10.2 5 Noroeste 10 Oeste 0 1013.6 0.7 87
2019-12-06 22:00:00 10.2 4 Noroeste 8 Noroeste 0 1013.4 1.2 87
2019-12-06 21:00:00 10.9 3 Noroeste 4 Nordeste 0 1013.2 1.4 85
2019-12-06 20:00:00 12.4 4 Norte 10 Nordeste 0 1012.9 1.2 78
2019-12-06 19:00:00 13.1 4 Norte 10 Noroeste 0 1012.2 0.5 77
2019-12-06 18:00:00 14.4 2 Nordeste 8 Este 0 1011.8 0 80
2019-12-06 17:00:00 16 6 Este 15 Nordeste 0 1011.7 -0.5 72
2019-12-06 16:00:00 17.3 4 Sudeste 11 Sur 0 1011.7 -0.9 65
2019-12-06 15:00:00 17.2 7 Sudeste 16 Sudeste 0 1011.8 -1.5 64
2019-12-06 14:00:00 17.6 7 Sudeste 13 Sur 0 1012.2 -1.3 59
2019-12-06 13:00:00 18 6 Sudeste 13 Sur 0 1012.6 -0.7 54
2019-12-06 12:00:00 17.1 5 Este 10 Sudeste 0 1013.3 0.8 58
2019-12-06 11:00:00 14.7 3 Sudoeste 5 Noroeste 0 1013.5 1.3 72
2019-12-06 10:00:00 12.2 2 Oeste 7 Noroeste 0 1013.3 1.6 81
2019-12-06 09:00:00 9.8 4 Noroeste 9 Noroeste 0 1012.5 1.3 89
2019-12-06 08:00:00 9.7 3 Noroeste 5 Noroeste 0 1012.2 1.1 93
2019-12-06 07:00:00 10 3 Noroeste 7 Oeste 0 1011.7 0.5 91
2019-12-06 06:00:00 10.3 0 Calma 11 Noroeste 0 1011.2 0 90
2019-12-06 05:00:00 10.4 3 Noroeste 7 Noroeste 0 1011.1 0 91
2019-12-06 04:00:00 10.4 2 Oeste 4 Oeste 0 1011.2 0.1 91
2019-12-06 03:00:00 10.9 0 Calma 6 Norte 0 1011.2 -0.3 90
2019-12-06 02:00:00 11.2 4 Norte 7 Norte 0 1011.1 -0.4 89
2019-12-06 01:00:00 11.6 5 Norte 9 Norte 0 1011.1 0.1 86
2019-12-06 00:00:00 11.9 6 Nordeste 9 Nordeste 0 1011.5 0.8 88
2019-12-05 23:00:00 11.8 4 Norte 5 Norte 0 1011.5 1.3 91
2019-12-05 22:00:00 12.1 4 Norte 17 Nordeste 0 1011 1.6 86
2019-12-05 21:00:00 12.1 4 Norte 7 Norte 0 1010.7 1.9 85
2019-12-05 20:00:00 12.3 4 Norte 10 Norte 0 1010.2 2.4 88
2019-12-05 19:00:00 13.2 4 Norte 7 Este 0 1009.4 2 85
2019-12-05 18:00:00 13.8 4 Nordeste 13 Nordeste 0 1008.8 1.8 79
2019-12-05 17:00:00 14.8 9 Este 19 Nordeste 0 1007.8 0.6 73
2019-12-05 16:00:00 15.8 10 Este 18 Este 0 1007.4 0.2 65
2019-12-05 15:00:00 16.7 7 Este 16 Nordeste 0 1007 -0.5 65
2019-12-05 14:00:00 16.7 7 Este 15 Sudeste 0 1007.2 0.1 67
2019-12-05 13:00:00 16.3 11 Nordeste 19 Nordeste 0 1007.2 1 67
2019-12-05 12:00:00 15.7 11 Este 19 Nordeste 0 1007.5 2.1 70
2019-12-05 11:00:00 14.6 10 Nordeste 17 Nordeste 0 1007.1 2.8 74
2019-12-05 10:00:00 12.2 5 Nordeste 10 Nordeste 0 1006.2 3 83
2019-12-05 09:00:00 10.1 5 Norte 9 Norte 0 1005.4 3.1 87
2019-12-05 08:00:00 10.3 4 Norte 9 Nordeste 0 1004.3 2.4 87
2019-12-05 07:00:00 10 5 Norte 9 Nordeste 0 1003.2 1.6 88
2019-12-05 06:00:00 9.6 4 Norte 7 Norte 0 1002.3 1.2 91
2019-12-05 05:00:00 10 2 Noroeste 5 Oeste 0 1001.9 1.5 89
2019-12-05 04:00:00 10.5 3 Sudoeste 6 Norte 0 1001.6 1.4 89
2019-12-05 03:00:00 10.4 0 Calma 5 Oeste 0 1001.1 1.5 89
2019-12-05 02:00:00 10.2 3 Noroeste 8 Noroeste 0 1000.4 1.2 88
2019-12-05 01:00:00 9.9 3 Oeste 8 Noroeste 0 1000.2 1.3 88
2019-12-05 00:00:00 9.9 3 Noroeste 8 Oeste 0 999.6 1.4 87
2019-12-04 23:00:00 10.1 4 Oeste 9 Norte 0 999.2 1.5 85
2019-12-04 22:00:00 10.6 3 Oeste 8 Nordeste 0 998.9 1.9 83
2019-12-04 21:00:00 11.8 5 Noroeste 14 Noroeste 0 998.2 1.5 74
2019-12-04 20:00:00 11.8 5 Noroeste 14 Norte 0 997.7 1.3 74
2019-12-04 19:00:00 12.7 5 Noroeste 12 Norte 0 997 1.3 69
2019-12-04 18:00:00 13.3 5 Noroeste 15 Noroeste 0 996.7 1.6 69
2019-12-04 17:00:00 13.9 7 Noroeste 23 Norte 0 996.4 1.5 64
2019-12-04 16:00:00 15 8 Noroeste 19 Noroeste 0 995.7 0.9 64
2019-12-04 15:00:00 15.1 10 Norte 20 Noroeste 0 995.1 -0.2 67
2019-12-04 14:00:00 14.3 10 Noroeste 27 Norte 0 994.9 -0.7 70
2019-12-04 13:00:00 13.5 10 Noroeste 19 Noroeste 0 994.8 -0.6 79
2019-12-04 12:00:00 12.9 5 Sudoeste 14 Oeste 0 995.3 0.8 90
2019-12-04 11:00:00 12.4 4 Oeste 10 Sudoeste 0 995.6 1.7 94
2019-12-04 10:00:00 11.2 4 Norte 10 Norte 0 995.4 1.6 93
2019-12-04 09:00:00 10.6 4 Norte 10 Este 0 994.5 0.8 95
2019-12-04 08:00:00 10.6 3 Noroeste 8 Norte 1 993.9 0.3 94
2019-12-04 07:00:00 10.8 0 Calma 15 Noroeste 1.6 993.8 -0.6 93
2019-12-04 06:00:00 11.1 5 Nordeste 23 Norte 2.2 993.7 -1.6 90
2019-12-04 05:00:00 11.1 4 Noroeste 26 Nordeste 4.4 993.6 -2.5 94
2019-12-04 04:00:00 11.3 12 Nordeste 22 Nordeste 4.8 994.4 -2.7 92
2019-12-04 03:00:00 11.3 10 Norte 19 Norte 5 995.3 -3 93
2019-12-04 02:00:00 11 9 Norte 28 Norte 1 996.1 -2.9 85
2019-12-04 01:00:00 12 17 Norte 33 Norte 0 997.1 -2.3 74
2019-12-04 00:00:00 11.6 14 Norte 33 Norte 0 998.3 -1.6 68
2019-12-03 23:00:00 11.8 14 Norte 38 Norte 0 999 -1.5 65
2019-12-03 22:00:00 11.9 19 Norte 44 Norte 0 999.4 -1.5 64
2019-12-03 21:00:00 11.8 19 Norte 47 Nordeste 0 999.9 -0.9 68
2019-12-03 20:00:00 11.7 20 Norte 45 Norte 0 1000.5 -0.3 67
2019-12-03 19:00:00 11.6 21 Norte 40 Norte 0 1000.9 -0.2 69
2019-12-03 18:00:00 11.2 15 Nordeste 29 Nordeste 0 1000.8 -0.8 71
2019-12-03 17:00:00 11 14 Norte 26 Nordeste 0.2 1000.8 -1.2 77
2019-12-03 16:00:00 10.9 10 Nordeste 28 Nordeste 1.2 1001.1 -1.9 82
2019-12-03 15:00:00 11.5 18 Nordeste 37 Este 1.4 1001.6 -2.2 84
2019-12-03 14:00:00 12.6 21 Nordeste 37 Nordeste 0 1002 -2.3 79
2019-12-03 13:00:00 12 12 Nordeste 35 Nordeste 1.4 1003 -1.5 86
2019-12-03 12:00:00 13.6 21 Nordeste 41 Este 0 1003.8 -0.4 67
2019-12-03 11:00:00 13.4 16 Nordeste 38 Nordeste 0 1004.3 0.3 67
2019-12-03 10:00:00 13.1 18 Nordeste 49 Nordeste 0 1004.5 0.9 69
2019-12-03 09:00:00 13.1 13 Nordeste 30 Nordeste 0 1004.2 1.1 72
2019-12-03 08:00:00 12.9 10 Nordeste 33 Nordeste 0 1004 0.3 75
2019-12-03 07:00:00 12.9 12 Nordeste 38 Nordeste 0 1003.6 -0.6 73
2019-12-03 06:00:00 12.8 13 Nordeste 37 Este 0 1003.1 -1.8 76
2019-12-03 05:00:00 12.6 14 Nordeste 28 Nordeste 0 1003.7 -1.4 77
2019-12-03 04:00:00 12.5 12 Nordeste 30 Este 0 1004.2 -1.5 79
2019-12-03 03:00:00 11.9 14 Nordeste 27 Nordeste 0 1004.9 -0.7 83
2019-12-03 02:00:00 11.7 13 Nordeste 26 Nordeste 2.4 1005.1 -0.1 88
2019-12-03 01:00:00 12.3 9 Nordeste 29 Nordeste 7.6 1005.7 0.8 94
2019-12-03 00:00:00 12.5 16 Nordeste 38 Este 3.6 1005.6 0.4 94
2019-12-02 23:00:00 12.4 6 Nordeste 39 Nordeste 2.8 1005.2 0.3 95
2019-12-02 22:00:00 12.8 21 Nordeste 35 Nordeste 1 1004.9 0.6 94
2019-12-02 21:00:00 13.1 15 Nordeste 28 Nordeste 2 1005.2 1.3 94
2019-12-02 20:00:00 12.9 8 Nordeste 18 Nordeste 0.6 1004.9 1.5 94
2019-12-02 19:00:00 13 9 Nordeste 26 Este 1.4 1004.3 1.2 95
2019-12-02 18:00:00 13.8 12 Este 23 Nordeste 2 1003.9 1.2 90
2019-12-02 17:00:00 14.9 9 Nordeste 21 Nordeste 0 1003.4 0.7 83
2019-12-02 16:00:00 15.1 13 Este 29 Nordeste 0 1003.1 0.1 81
2019-12-02 15:00:00 15.5 10 Este 24 Este 0 1002.7 -1.1 78
2019-12-02 14:00:00 16.1 8 Nordeste 15 Norte 0 1002.7 -1 71
2019-12-02 13:00:00 15.8 6 Nordeste 12 Nordeste 0 1003 0.1 74
2019-12-02 12:00:00 15.2 6 Nordeste 17 Norte 0 1003.8 1.7 74
2019-12-02 11:00:00 14.5 8 Norte 17 Norte 0.8 1003.7 1.9 81
2019-12-02 10:00:00 12.5 5 Norte 10 Nordeste 0 1002.9 1.5 91
2019-12-02 09:00:00 11.6 6 Nordeste 18 Este 0.2 1002.1 1.1 91
2019-12-02 08:00:00 11.7 6 Nordeste 15 Norte 0.8 1001.8 1 90
2019-12-02 07:00:00 12.2 9 Nordeste 19 Nordeste 1 1001.4 0.4 83
2019-12-02 06:00:00 12.7 5 Nordeste 12 Este 0.4 1001 0 82
2019-12-02 05:00:00 14.1 8 Nordeste 24 Este 0 1000.8 -0.3 66
2019-12-02 04:00:00 14.5 14 Este 30 Este 0 1001 -0.3 68
2019-12-02 03:00:00 14.4 17 Este 31 Nordeste 0 1001 -0.5 69
2019-12-02 02:00:00 14.3 14 Este 26 Este 0 1001.1 -0.5 79
2019-12-02 01:00:00 13.3 5 Nordeste 12 Este 0 1001.3 -0.3 78
2019-12-02 00:00:00 12.4 6 Nordeste 12 Nordeste 0 1001.5 -0.4 77
2019-12-01 23:00:00 12.4 7 Nordeste 10 Nordeste 0 1001.6 -0.1 80
2019-12-01 22:00:00 12.3 5 Norte 13 Norte 0 1001.6 0.5 82
2019-12-01 21:00:00 12.2 5 Norte 9 Nordeste 0 1001.9 0.7 83
2019-12-01 20:00:00 13 3 Nordeste 8 Nordeste 0 1001.7 0.7 80
2019-12-01 19:00:00 14.2 6 Nordeste 18 Nordeste 0 1001.1 0.1 74
2019-12-01 18:00:00 15.1 10 Nordeste 19 Este 0 1001.2 0.3 76
2019-12-01 17:00:00 15.7 9 Nordeste 20 Nordeste 0 1001 -0.2 80
2019-12-01 16:00:00 16.2 10 Este 23 Nordeste 0 1001 -0.6 80
2019-12-01 15:00:00 17.3 12 Este 22 Este 0 1000.9 -1.6 77
2019-12-01 14:00:00 19 10 Nordeste 18 Nordeste 0 1001.2 -1.8 61
2019-12-01 13:00:00 20.8 4 Sur 10 Sur 0 1001.6 -1.5 45
2019-12-01 12:00:00 19.3 3 Sudoeste 8 Oeste 0 1002.5 -0.5 52
2019-12-01 11:00:00 15 0 Calma 8 Noroeste 0 1003 0.3 77
2019-12-01 10:00:00 13.2 3 Oeste 14 Noroeste 0 1003.1 0.5 81
2019-12-01 09:00:00 9.9 4 Noroeste 7 Noroeste 0 1003 0.3 92
2019-12-01 08:00:00 8.6 3 Noroeste 8 Noroeste 0 1002.7 -0.3 93
2019-12-01 07:00:00 8.8 3 Noroeste 5 Noroeste 0 1002.6 -0.8 94
2019-12-01 06:00:00 9.2 2 Oeste 7 Noroeste 0 1002.7 -1 94
2019-12-01 05:00:00 9.4 4 Noroeste 7 Norte 0 1003 -0.8 93
2019-12-01 04:00:00 9.6 3 Oeste 6 Noroeste 0 1003.4 -0.8 93
2019-12-01 03:00:00 10 2 Noroeste 9 Noroeste 0 1003.7 -1 92
2019-12-01 02:00:00 10 0 Calma 8 Noroeste 0 1003.8 -1.4 91
2019-12-01 01:00:00 10.6 4 Noroeste 5 Noroeste 0 1004.2 -1.7 91
2019-12-01 00:00:00 11 2 Noroeste 4 Noroeste 0 1004.7 -1.6 90
2019-11-30 23:00:00 11.5 0 Calma 7 Oeste 0 1005.2 -1.4 87
2019-11-30 22:00:00 12.4 3 Oeste 5 Oeste 0 1005.9 -0.7 86
2019-11-30 21:00:00 13.7 3 Sudoeste 6 Sur 0 1006.3 -0.3 90
2019-11-30 20:00:00 14.4 4 Sudoeste 8 Oeste 0 1006.6 -0.2 86
2019-11-30 19:00:00 15.4 5 Oeste 13 Sudoeste 0 1006.6 -0.6 79
2019-11-30 18:00:00 16.9 6 Sudoeste 14 Sur 0 1006.6 -1.2 72
2019-11-30 17:00:00 18.2 9 Sur 18 Sur 0 1006.8 -1.8 69
2019-11-30 16:00:00 20.3 14 Sur 26 Sudoeste 0 1007.2 -2.3 57
2019-11-30 15:00:00 22.3 11 Sudoeste 25 Sudoeste 0 1007.8 -2.9 44
2019-11-30 14:00:00 22.4 11 Sudoeste 22 Sudoeste 0 1008.6 -2.6 47
2019-11-30 13:00:00 21.8 9 Sudoeste 19 Sudoeste 0 1009.5 -1.6 48
2019-11-30 12:00:00 20.4 4 Sudoeste 9 Sudoeste 0 1010.7 -0.5 54
2019-11-30 11:00:00 17.5 4 Sur 9 Sudoeste 0 1011.2 0 64
2019-11-30 10:00:00 15 4 Sudoeste 9 Sudoeste 0 1011.1 0.3 75
2019-11-30 09:00:00 12.1 3 Noroeste 9 Noroeste 0 1011.2 0.5 83
2019-11-30 08:00:00 11.3 5 Noroeste 9 Noroeste 0 1011.2 0.3 84
2019-11-30 07:00:00 11.4 5 Noroeste 11 Noroeste 0 1010.8 -0.2 84
2019-11-30 06:00:00 11.6 5 Noroeste 9 Noroeste 0 1010.7 -0.8 84
2019-11-30 05:00:00 11.8 4 Noroeste 11 Noroeste 0 1010.9 -0.2 83
2019-11-30 04:00:00 11.9 3 Noroeste 6 Noroeste 0 1011 -0.1 82
2019-11-30 03:00:00 12.6 4 Oeste 8 Noroeste 0 1011.5 0.2 80
2019-11-30 02:00:00 12.8 3 Oeste 7 Norte 0 1011.1 -0.1 81
2019-11-30 01:00:00 13.8 3 Norte 10 Nordeste 0 1011.1 0.2 76
2019-11-30 00:00:00 14.5 9 Noroeste 13 Norte 0 1011.3 0.5 74
2019-11-29 23:00:00 15 0 Calma 8 Norte 0 1011.2 0.6 71
2019-11-29 22:00:00 16.4 8 Nordeste 14 Norte 0 1010.9 0.6 66
2019-11-29 21:00:00 16.2 3 Noroeste 14 Norte 0 1010.8 1 67
2019-11-29 20:00:00 17.7 9 Norte 18 Noroeste 0 1010.6 1.3 61
2019-11-29 19:00:00 17.9 6 Oeste 20 Noroeste 0 1010.3 1.4 60
2019-11-29 18:00:00 18.8 7 Noroeste 18 Oeste 0 1009.8 0.9 57
2019-11-29 17:00:00 20.5 6 Noroeste 17 Noroeste 0 1009.3 -0.1 51
2019-11-29 16:00:00 21.3 8 Noroeste 22 Oeste 0 1008.9 -0.3 49
2019-11-29 15:00:00 22.6 12 Noroeste 29 Norte 0 1008.9 -0.8 44
2019-11-29 14:00:00 22.3 17 Noroeste 34 Norte 0 1009.4 -0.1 46
2019-11-29 13:00:00 22.7 13 Noroeste 27 Norte 0 1009.2 0 45
2019-11-29 12:00:00 21.7 10 Noroeste 22 Noroeste 0 1009.7 1 47
2019-11-29 11:00:00 19.9 6 Oeste 12 Oeste 0 1009.5 1.6 52
2019-11-29 10:00:00 17.4 5 Sudoeste 15 Sur 0 1009.2 1.7 60
2019-11-29 09:00:00 13.7 5 Sudoeste 9 Noroeste 0 1008.7 1.5 72
2019-11-29 08:00:00 12.3 3 Noroeste 7 Oeste 0 1007.9 0.8 74
2019-11-29 07:00:00 12.7 3 Oeste 8 Noroeste 0 1007.5 0.2 71
2019-11-29 06:00:00 12.9 4 Noroeste 12 Oeste 0 1007.2 -0.3 68
2019-11-29 05:00:00 13.9 5 Noroeste 12 Noroeste 0 1007.1 -0.3 62
2019-11-29 04:00:00 15.1 6 Oeste 19 Sudoeste 0 1007.3 -0.5 56
2019-11-29 03:00:00 14.7 7 Noroeste 24 Noroeste 0 1007.5 -0.6 57
2019-11-29 02:00:00 15.1 10 Oeste 19 Oeste 0 1007.4 -0.9 54
2019-11-29 01:00:00 15.2 8 Noroeste 24 Noroeste 0 1007.8 -0.3 55
2019-11-29 00:00:00 14.2 5 Norte 19 Oeste 0 1008.1 0.6 58
2019-11-28 23:00:00 14 6 Noroeste 17 Noroeste 0 1008.3 1.1 60
2019-11-28 22:00:00 13.8 8 Noroeste 15 Noroeste 0 1008.1 1.1 65
2019-11-28 21:00:00 13.5 3 Oeste 12 Noroeste 0 1007.5 0.6 68
2019-11-28 20:00:00 14.4 4 Oeste 11 Noroeste 0 1007.2 0.7 66
2019-11-28 19:00:00 15.4 4 Sudoeste 13 Sudoeste 0 1007 0.7 73
2019-11-28 18:00:00 16.6 7 Sudoeste 16 Sudoeste 0 1006.9 0.6 65
2019-11-28 17:00:00 18.6 7 Sudoeste 15 Sur 0 1006.5 -0.1 52
2019-11-28 16:00:00 20.6 6 Oeste 19 Sudoeste 0 1006.3 -1.1 43
2019-11-28 15:00:00 21 12 Oeste 30 Sudoeste 0 1006.3 -2 43
2019-11-28 14:00:00 21.5 11 Sudoeste 25 Sudoeste 0 1006.6 -1.8 41
2019-11-28 13:00:00 20.7 7 Sudoeste 28 Noroeste 0 1007.4 -0.8 43
2019-11-28 12:00:00 18.8 9 Oeste 33 Oeste 0 1008.3 0.3 47
2019-11-28 11:00:00 17.2 13 Oeste 27 Oeste 0 1008.4 1.1 53
2019-11-28 10:00:00 16.1 10 Oeste 20 Oeste 0 1008.2 1.7 56
2019-11-28 09:00:00 13 6 Oeste 15 Oeste 0 1008 2 67
2019-11-28 08:00:00 11.6 3 Sudoeste 10 Norte 0 1007.3 1.9 69
2019-11-28 07:00:00 12.3 4 Sudeste 8 Sudoeste 0 1006.5 1 64
2019-11-28 06:00:00 13.5 5 Sur 17 Sur 0 1006 1 57
2019-11-28 05:00:00 12.5 6 Sur 14 Sur 0 1005.4 0.4 61
2019-11-28 04:00:00 12 2 Sur 7 Sudeste 0 1005.5 0.3 66
2019-11-28 03:00:00 13.8 3 Sur 20 Oeste 0 1005 0.1 59
2019-11-28 02:00:00 14.5 8 Sudoeste 20 Noroeste 0 1005 0.3 57
2019-11-28 01:00:00 15.1 9 Oeste 24 Oeste 0 1005.2 0.9 56
2019-11-28 00:00:00 15.6 12 Oeste 28 Oeste 0 1004.9 1.1 55
2019-11-27 23:00:00 15.5 10 Oeste 23 Oeste 0 1004.7 1.3 55
2019-11-27 22:00:00 15.8 5 Oeste 22 Sudoeste 0 1004.3 1.3 49
2019-11-27 21:00:00 16.4 10 Oeste 26 Oeste 0 1003.8 1.7 47
2019-11-27 20:00:00 17.1 12 Oeste 31 Sudoeste 0 1003.4 2 42
2019-11-27 19:00:00 17.3 12 Noroeste 38 Noroeste 0 1003 2.1 42
2019-11-27 18:00:00 18.2 15 Noroeste 32 Noroeste 0 1002.1 1.2 40
2019-11-27 17:00:00 20 13 Noroeste 32 Sudoeste 0 1001.4 0.3 42
2019-11-27 16:00:00 22 10 Oeste 31 Oeste 0 1000.9 -0.8 39
2019-11-27 15:00:00 22.9 8 Noroeste 36 Noroeste 0 1000.9 -1.9 41
2019-11-27 14:00:00 23 13 Oeste 38 Noroeste 0 1001.1 -2.3 40
2019-11-27 06:00:00 12.4 2 Noroeste 12 Noroeste 0 1000.3 -0.1 81
2019-11-27 05:00:00 12.4 5 Sudoeste 11 Sudoeste 0 1000 -0.4 81
2019-11-27 04:00:00 12.5 4 Oeste 10 Sudoeste 0 1000.2 -0.6 83
2019-11-27 03:00:00 12.5 3 Sudoeste 8 Oeste 0 1000.4 -0.5 83
2019-11-27 02:00:00 13.2 4 Oeste 8 Noroeste 0 1000.4 -0.7 81
2019-11-27 01:00:00 12.8 4 Oeste 7 Oeste 0 1000.8 -0.6 84
2019-11-27 00:00:00 12.7 5 Oeste 9 Sudoeste 0 1000.9 -0.7 84
2019-11-26 23:00:00 13.2 3 Noroeste 7 Noroeste 0 1001.1 -0.6 81
2019-11-26 22:00:00 13.6 4 Sudoeste 9 Oeste 0 1001.4 -0.5 80
2019-11-26 21:00:00 14.5 4 Oeste 7 Oeste 0 1001.6 0.2 77
2019-11-26 20:00:00 15.5 3 Noroeste 11 Sudoeste 0 1001.7 0.7 75
2019-11-26 19:00:00 16.8 7 Sudoeste 15 Sudoeste 0 1001.9 0.4 73
2019-11-26 18:00:00 17.9 6 Sur 16 Sudeste 0 1001.4 -0.2 72
2019-11-26 17:00:00 20.7 5 Oeste 27 Oeste 0 1001 -1.2 54
2019-11-26 16:00:00 22.6 12 Oeste 32 Oeste 0 1001.5 -1.6 48
2019-11-26 15:00:00 23.6 10 Oeste 23 Oeste 0 1001.6 -2.7 44
2019-11-26 14:00:00 23.2 8 Oeste 26 Oeste 0 1002.2 -2.9 44
2019-11-26 13:00:00 22.3 12 Oeste 29 Oeste 0 1003.1 -2 43
2019-11-26 12:00:00 20.8 13 Oeste 27 Oeste 0 1004.3 -0.6 46
2019-11-26 11:00:00 18.9 13 Oeste 32 Oeste 0 1005.1 0.3 49
2019-11-26 10:00:00 16.3 10 Oeste 21 Oeste 0 1005.1 0.6 58
2019-11-26 09:00:00 15.1 7 Oeste 20 Oeste 0 1004.9 0.2 62
2019-11-26 08:00:00 13.6 4 Oeste 15 Sudoeste 0 1004.8 0 67
2019-11-26 07:00:00 14.2 5 Oeste 17 Oeste 0 1004.5 -0.7 66
2019-11-26 06:00:00 13.7 7 Oeste 12 Oeste 0 1004.7 -0.8 69
2019-11-26 05:00:00 13.2 4 Oeste 10 Noroeste 0 1004.8 -0.5 74
2019-11-26 04:00:00 13.6 4 Sudoeste 8 Oeste 0 1005.2 -0.7 74
2019-11-26 03:00:00 15 5 Oeste 14 Oeste 0 1005.5 -0.6 69
2019-11-26 02:00:00 16.5 8 Oeste 18 Sudoeste 0 1005.3 -0.7 63
2019-11-26 01:00:00 16.5 8 Sudoeste 17 Sudoeste 0 1005.9 0.1 64
2019-11-26 00:00:00 16.3 2 Este 17 Oeste 0 1006.1 0.3 67
2019-11-25 23:00:00 16.7 5 Sudoeste 14 Oeste 0 1006 0.9 66
2019-11-25 22:00:00 17.7 6 Oeste 20 Oeste 0 1005.8 1 62
2019-11-25 21:00:00 18.2 8 Oeste 23 Oeste 0 1005.8 1.5 59
2019-11-25 20:00:00 18.7 6 Oeste 25 Oeste 0 1005.1 1.4 57
2019-11-25 19:00:00 19 10 Oeste 29 Noroeste 0 1004.8 1.6 56
2019-11-25 18:00:00 19.6 19 Noroeste 36 Noroeste 0 1004.3 1.5 55
2019-11-25 17:00:00 20.6 13 Noroeste 30 Oeste 0 1003.7 0.4 51
2019-11-25 16:00:00 22.1 12 Oeste 28 Oeste 0 1003.2 -0.9 48
2019-11-25 15:00:00 22.9 11 Oeste 28 Sudoeste 0 1002.8 -2 47
2019-11-25 14:00:00 22.5 10 Oeste 22 Oeste 0 1003.3 -2 47
2019-11-25 13:00:00 20.7 10 Sur 17 Sudoeste 0 1004.1 -0.9 50
2019-11-25 12:00:00 19.9 8 Sudoeste 20 Sudoeste 0 1004.8 0.4 53
2019-11-25 11:00:00 18.2 9 Sudoeste 18 Sudoeste 0 1005.3 1.1 55
2019-11-25 10:00:00 14.2 7 Oeste 15 Sur 0 1005 0.8 69
2019-11-25 09:00:00 13.2 6 Oeste 22 Sudoeste 0 1004.4 0.8 64
2019-11-25 08:00:00 12.4 9 Sudoeste 16 Sudoeste 0 1004.2 0.5 68
2019-11-25 07:00:00 12.1 3 Sudoeste 18 Sur 0 1004.2 0.4 69
2019-11-25 06:00:00 12.9 9 Sudeste 39 Oeste 0 1003.6 -0.6 63
2019-11-25 05:00:00 14.6 9 Oeste 43 Oeste 0 1003.7 -0.8 59
2019-11-25 04:00:00 14.3 12 Oeste 41 Oeste 0 1003.8 -1.1 58
2019-11-25 03:00:00 14.2 14 Noroeste 45 Norte 0 1004.2 -0.4 57
2019-11-25 02:00:00 13.1 9 Oeste 23 Oeste 0 1004.5 -0.6 57
2019-11-25 01:00:00 13 9 Oeste 26 Oeste 0 1004.9 0.3 54
2019-11-25 00:00:00 13.2 8 Oeste 22 Oeste 0 1004.6 0.2 53
2019-11-24 23:00:00 12.6 9 Oeste 26 Noroeste 0 1005.1 0.9 55
2019-11-24 22:00:00 12.5 6 Oeste 29 Oeste 0 1004.6 0.5 53
2019-11-24 21:00:00 12.7 9 Oeste 30 Oeste 0 1004.4 1.1 52
2019-11-24 20:00:00 13.4 12 Noroeste 26 Noroeste 0 1004.2 1.2 50
2019-11-24 19:00:00 14 4 Oeste 23 Oeste 0 1004.1 1.1 43
2019-11-24 18:00:00 14.6 10 Oeste 24 Oeste 0 1003.3 0.9 41
2019-11-24 17:00:00 15.5 11 Oeste 26 Noroeste 0 1003 0.3 40
2019-11-24 16:00:00 16.4 14 Oeste 33 Oeste 0 1003 -0.1 40
2019-11-24 15:00:00 16.8 14 Noroeste 29 Noroeste 0 1002.4 -1.2 38
2019-11-24 14:00:00 17.5 8 Noroeste 23 Noroeste 0 1002.7 -0.9 36
2019-11-24 13:00:00 15.6 8 Oeste 23 Oeste 0 1003.1 0.6 44
2019-11-24 12:00:00 16.3 11 Oeste 33 Oeste 0 1003.6 1.4 40
2019-11-24 11:00:00 14.8 15 Oeste 32 Oeste 0 1003.6 1.1 45
2019-11-24 10:00:00 13.3 15 Oeste 44 Noroeste 0 1002.5 0.3 47
2019-11-24 09:00:00 11.3 15 Noroeste 36 Noroeste 0 1002.2 1.4 55
2019-11-24 08:00:00 11 12 Oeste 30 Oeste 0 1002.5 2.2 56
2019-11-24 07:00:00 11 10 Oeste 34 Oeste 0 1002.2 2.5 55
2019-11-24 06:00:00 11.7 19 Noroeste 41 Oeste 0 1000.8 1.2 52
2019-11-24 05:00:00 11.9 15 Noroeste 43 Noroeste 0 1000.3 1.3 51
2019-11-24 04:00:00 12.7 26 Noroeste 55 Noroeste 0 999.7 0.9 48
2019-11-24 03:00:00 12.7 19 Oeste 45 Oeste 0 999.6 1.5 47
2019-11-24 02:00:00 13.1 12 Oeste 33 Noroeste 0 999 1.7 45
2019-11-24 01:00:00 13.7 12 Noroeste 42 Noroeste 0 998.8 0.9 43
2019-11-24 00:00:00 13.8 19 Noroeste 49 Noroeste 0 998.1 0.9 44
2019-11-23 23:00:00 13.8 17 Oeste 45 Noroeste 0 997.3 0.6 45
2019-11-23 22:00:00 14.3 16 Noroeste 57 Noroeste 0 997.9 2.2 46
2019-11-23 21:00:00 14.2 18 Noroeste 45 Noroeste 0 997.2 2.8 46
2019-11-23 20:00:00 14.4 14 Noroeste 38 Noroeste 0 996.7 3.1 45
2019-11-23 19:00:00 14.7 16 Noroeste 41 Oeste 0 995.7 3.1 44
2019-11-23 18:00:00 14.7 14 Oeste 50 Oeste 0 994.4 3.1 40
2019-11-23 17:00:00 15.4 16 Noroeste 39 Oeste 0 993.6 2.3 40
2019-11-23 16:00:00 15.4 19 Noroeste 42 Noroeste 0 992.6 1.7 40
2019-11-23 15:00:00 15.2 19 Noroeste 49 Noroeste 0 991.3 1.4 41
2019-11-23 14:00:00 15.1 15 Noroeste 43 Oeste 0 991.3 2.1 44
2019-11-23 13:00:00 16 14 Oeste 48 Noroeste 0 990.9 2.7 45
2019-11-23 12:00:00 14.9 18 Noroeste 57 Noroeste 0 989.9 2.4 47
2019-11-23 11:00:00 14.6 15 Oeste 37 Oeste 0 989.2 2.6 49
2019-11-23 10:00:00 14 14 Oeste 45 Oeste 0 988.2 2.2 51
2019-11-23 09:00:00 12.6 15 Oeste 36 Oeste 0 987.5 0.8 57
2019-11-23 08:00:00 11.3 13 Oeste 35 Sudoeste 0 986.6 0.8 71
2019-11-23 07:00:00 9.9 6 Sur 11 Sudoeste 0 986 0.6 90
2019-11-23 06:00:00 11.3 10 Noroeste 25 Noroeste 0 986.7 1 83
2019-11-23 05:00:00 10.8 4 Oeste 21 Oeste 0 985.8 0 93
2019-11-23 04:00:00 10.9 6 Sudoeste 13 Sudoeste 0 985.4 -0.5 95
2019-11-23 03:00:00 10.8 3 Oeste 10 Noroeste 0 985.7 -0.8 96
2019-11-23 02:00:00 11.7 5 Oeste 13 Sudoeste 0.2 985.8 -1.2 95
2019-11-23 01:00:00 12.4 7 Sudoeste 15 Sudoeste 0 985.9 -1.7 96
2019-11-23 00:00:00 12.8 3 Noroeste 8 Norte 0 986.5 -2.5 95
2019-11-22 23:00:00 13.6 3 Noroeste 11 Noroeste 0 987 -2.1 97
2019-11-22 22:00:00 13.5 4 Sur 11 Sur 1.4 987.6 -2 97
2019-11-22 21:00:00 13.4 2 Noroeste 12 Sudoeste 4.8 989 -1.2 97
2019-11-22 20:00:00 13.3 5 Sudoeste 11 Sudoeste 2.6 989.1 -1.5 96
2019-11-22 19:00:00 13.4 6 Sudoeste 13 Sur 2.2 989.6 -1.8 95
2019-11-22 18:00:00 13.4 4 Sur 6 Sudoeste 1.2 990.2 -2 94
2019-11-22 17:00:00 13.5 2 Este 5 Oeste 1.6 990.6 -2.7 93
2019-11-22 16:00:00 13.8 2 Noroeste 7 Oeste 0 991.4 -2.7 90
2019-11-22 15:00:00 13.9 3 Sur 8 Sudoeste 0 992.2 -3.7 86
2019-11-22 14:00:00 14.1 2 Sur 6 Sudeste 0 993.3 -3.7 83
2019-11-22 13:00:00 13.7 3 Este 5 Sudeste 0.2 994.1 -2.8 85
2019-11-22 12:00:00 13 3 Oeste 5 Noroeste 0.2 995.9 -0.9 86
2019-11-22 11:00:00 12.5 2 Sudoeste 6 Noroeste 0 997 0.2 87
2019-11-22 10:00:00 11 3 Oeste 5 Oeste 0 996.9 0.2 89
2019-11-22 09:00:00 9.2 3 Noroeste 9 Oeste 0 996.8 -0.4 92
2019-11-22 08:00:00 8.3 4 Noroeste 8 Noroeste 0 996.8 -0.4 94
2019-11-22 07:00:00 8.3 3 Noroeste 7 Oeste 0 996.7 -0.9 94
2019-11-22 06:00:00 8.2 3 Oeste 9 Noroeste 0 997.2 -0.8 94
2019-11-22 05:00:00 8.2 3 Noroeste 6 Noroeste 0 997.2 -1 93
2019-11-22 04:00:00 8.8 3 Oeste 6 Noroeste 0 997.6 -1 92
2019-11-22 03:00:00 9.6 3 Noroeste 8 Noroeste 0 998 -0.9 93
2019-11-22 02:00:00 10.3 3 Oeste 7 Noroeste 0.2 998.2 -1.1 91
2019-11-22 01:00:00 10.8 3 Oeste 6 Noroeste 0 998.6 -1.2 92
2019-11-22 00:00:00 11.5 2 Noroeste 5 Noroeste 0 998.9 -0.9 90
2019-11-21 23:00:00 11.7 3 Noroeste 5 Norte 0.4 999.3 -0.3 91
2019-11-21 22:00:00 11.9 3 Noroeste 7 Norte 0.4 999.8 0.3 88
2019-11-21 21:00:00 12.1 4 Noroeste 7 Norte 0 999.8 0.5 79
2019-11-21 20:00:00 12.4 3 Norte -- -- 0 999.6 0.3 76
2019-11-21 19:00:00 13 2 Oeste 6 Sur 0 999.5 0.5 72
2019-11-21 18:00:00 14.3 4 Sudoeste 13 Sudoeste 0 999.3 0 66
2019-11-21 17:00:00 15.3 9 Sudoeste 18 Sudoeste 0 999.3 -0.6 63
2019-11-21 16:00:00 16.5 8 Sur 14 Sudoeste 0 999 -1.2 59
2019-11-21 15:00:00 15.8 6 Sur 12 Sur 0 999.3 -1.6 64
2019-11-21 14:00:00 15.5 6 Sur 11 Sur 0 999.9 -1.4 65
2019-11-21 13:00:00 16.4 4 Sur 10 Oeste 0 1000.2 -0.9 57
2019-11-21 12:00:00 15.3 6 Oeste 12 Oeste 0 1000.9 0.2 59
2019-11-21 11:00:00 13.4 3 Oeste 12 Noroeste 0 1001.3 0.9 66
2019-11-21 10:00:00 12 3 Oeste 11 Noroeste 0 1001.1 1.3 75
2019-11-21 09:00:00 9 4 Noroeste 10 Noroeste 0 1000.7 1.1 84
2019-11-21 08:00:00 -- -- -- -- -- -- -- -- --
2019-11-21 07:00:00 -- -- -- -- -- -- -- -- --
2019-11-21 06:00:00 -- -- -- -- -- -- -- -- --
2019-11-21 05:00:00 -- -- -- -- -- -- -- -- --
2019-11-21 04:00:00 -- -- -- -- -- -- -- -- --
2019-11-21 03:00:00 -- -- -- -- -- -- -- -- --
2019-11-21 02:00:00 -- -- -- -- -- -- -- -- --
2019-11-21 01:00:00 -- -- -- -- -- -- -- -- --
2019-11-21 00:00:00 -- -- -- -- -- -- -- -- --
2019-11-20 23:00:00 -- -- -- -- -- -- -- -- --
2019-11-20 22:00:00 -- -- -- -- -- -- -- -- --
2019-11-20 21:00:00 -- -- -- -- -- -- -- -- --
2019-11-20 20:00:00 -- -- -- -- -- -- -- -- --
2019-11-20 19:00:00 12.4 2 Noroeste 5 Sur 0 1000.6 -0.1 73
2019-11-20 18:00:00 13.2 5 Sudoeste 15 Sur 0 1000.6 -0.2 69
2019-11-20 17:00:00 14.1 8 Sur 18 Sur 0 1000.6 -0.7 63
2019-11-20 16:00:00 15.6 10 Sur 19 Sur 0 1000.7 -1.3 58
2019-11-20 15:00:00 15.6 12 Sur 19 Sudeste 0 1000.8 -2.1 56
2019-11-20 14:00:00 16.9 12 Sur 21 Sudoeste 0 1001.3 -2.3 49
2019-11-20 13:00:00 16.8 8 Sudeste 17 Sudeste 0 1002 -1.7 47
2019-11-20 12:00:00 16.3 3 Sur 10 Sudeste 0 1002.9 -0.6 43
2019-11-20 11:00:00 13.5 2 Sur 6 Sur 0 1003.6 0.1 48
2019-11-20 10:00:00 10.9 3 Noroeste 8 Norte 0 1003.7 0.2 58
2019-11-20 09:00:00 7.3 4 Noroeste 9 Noroeste 0 1003.5 0 69
2019-11-20 08:00:00 6.1 5 Noroeste 11 Noroeste 0 1003.5 0 73
2019-11-20 07:00:00 6.6 4 Oeste 9 Oeste 0 1003.5 -0.7 71
2019-11-20 06:00:00 6.9 3 Oeste 9 Oeste 0 1003.5 -1.2 71
2019-11-20 05:00:00 7 3 Noroeste 7 Noroeste 0 1003.5 -1.5 71
2019-11-20 04:00:00 7.1 4 Noroeste 12 Noroeste 0 1004.2 -1.4 68
2019-11-20 03:00:00 7.8 5 Noroeste 16 Noroeste 0 1004.7 -1.2 65
2019-11-20 02:00:00 8 5 Noroeste 15 Noroeste 0 1005 -1.4 64
2019-11-20 01:00:00 8.8 6 Noroeste 13 Noroeste 0 1005.6 -0.7 61
2019-11-20 00:00:00 8.5 5 Noroeste 9 Noroeste 0 1005.9 -0.4 62
2019-11-19 23:00:00 8.4 4 Noroeste 7 Noroeste 0 1006.4 0.2 65
2019-11-19 22:00:00 8.8 0 Calma 4 Sur 0 1006.3 0.3 65
2019-11-19 21:00:00 9.8 0 Calma 8 Norte 0 1006.3 0.7 59
2019-11-19 20:00:00 10.4 5 Norte 9 Norte 0 1006.2 0.8 54
2019-11-19 19:00:00 10.9 3 Noroeste 8 Norte 0 1006 0.7 57
2019-11-19 18:00:00 12.8 3 Noroeste 17 Oeste 0 1005.6 0.3 45
2019-11-19 17:00:00 15 8 Oeste 20 Oeste 0 1005.4 -0.5 38
2019-11-19 16:00:00 16.6 8 Oeste 18 Oeste 0 1005.3 -1.3 32
2019-11-19 15:00:00 16.9 8 Oeste 24 Noroeste 0 1005.3 -2.1 31
2019-11-19 14:00:00 16.4 10 Oeste 25 Oeste 0 1005.9 -1.8 33
2019-11-19 13:00:00 15.8 10 Oeste 26 Oeste 0 1006.6 -1.3 35
2019-11-19 12:00:00 14.5 7 Sudoeste 23 Norte 0 1007.4 -0.1 34
2019-11-19 11:00:00 13.1 11 Noroeste 28 Noroeste 0 1007.7 0.6 36
2019-11-19 10:00:00 11 9 Oeste 19 Oeste 0 1007.9 0.9 42
2019-11-19 09:00:00 7.7 7 Oeste 17 Noroeste 0 1007.5 1 59
2019-11-19 08:00:00 6.6 9 Noroeste 18 Noroeste 0 1007.1 0.8 60
2019-11-19 07:00:00 7.3 7 Oeste 16 Oeste 0 1007 0.3 59
2019-11-19 06:00:00 6.3 5 Oeste 12 Oeste 0 1006.5 0.1 65
2019-11-19 05:00:00 6.5 5 Noroeste 11 Oeste 0 1006.3 -0.1 66
2019-11-19 04:00:00 7.4 6 Oeste 17 Sudoeste 0 1006.7 -0.3 62
2019-11-19 03:00:00 9 8 Noroeste 21 Noroeste 0 1006.4 -0.5 51
2019-11-19 02:00:00 9.9 12 Noroeste 24 Norte 0 1006.4 0 47
2019-11-19 01:00:00 7.3 4 Oeste 11 Oeste 0 1007 1.2 61
2019-11-19 00:00:00 8.2 9 Noroeste 18 Noroeste 0 1006.9 1.4 58
2019-11-18 23:00:00 8.6 5 Oeste 11 Oeste 0 1006.4 1.3 56
2019-11-18 22:00:00 10.5 7 Noroeste 13 Noroeste 0 1005.8 1.7 47
2019-11-18 21:00:00 10.9 6 Noroeste 13 Norte 0 1005.5 2.1 48
2019-11-18 20:00:00 12.5 7 Norte 18 Norte 0 1005.1 2.6 45
2019-11-18 19:00:00 13.2 8 Sur 13 Sudoeste 0 1004.1 2.1 58
2019-11-18 18:00:00 14 5 Sudeste 14 Sudeste 0 1003.4 2 62
2019-11-18 17:00:00 15 5 Sur 16 Sudeste 0 1002.5 1.6 54
2019-11-18 16:00:00 14.9 8 Sudeste 22 Este 0 1002 1.4 56
2019-11-18 15:00:00 15.9 9 Sudeste 27 Sudeste 0 1001.4 0.4 49
2019-11-18 14:00:00 17.9 10 Noroeste 24 Noroeste 0 1000.9 0.3 37
2019-11-18 13:00:00 18 9 Noroeste 23 Norte 0 1000.6 1.1 39
2019-11-18 12:00:00 16.5 10 Norte 23 Norte 0 1001 2.9 45
2019-11-18 11:00:00 14.7 10 Norte 21 Noroeste 0 1000.6 2.6 50
2019-11-18 10:00:00 12.5 10 Noroeste 23 Norte 0 999.5 1.5 58
2019-11-18 09:00:00 11.1 9 Noroeste 26 Noroeste 0 998.1 0.2 65
2019-11-18 08:00:00 11 13 Noroeste 26 Oeste 0 998 0.4 69
2019-11-18 07:00:00 10.7 4 Noroeste 18 Noroeste 0 998 -0.1 78
2019-11-18 06:00:00 10.8 8 Oeste 18 Noroeste 0 997.9 -0.9 78
2019-11-18 05:00:00 10.9 4 Noroeste 7 Noroeste 0 997.6 -2 93
2019-11-18 04:00:00 11.4 4 Sudeste 8 Sur 0 998.1 -2.4 93
2019-11-18 03:00:00 11.6 3 Sudeste 7 Sudeste 0.4 998.8 -1.7 92
2019-11-18 02:00:00 11.8 2 Sur 5 Sudoeste 1.8 999.6 -0.5 91
2019-11-18 01:00:00 12.1 2 Oeste 8 Sur 3.6 1000.5 -0.3 88
2019-11-18 00:00:00 13 5 Sudoeste 11 Sudoeste 0.6 1000.5 -0.4 76
2019-11-17 23:00:00 14.1 2 Oeste 15 Sudoeste 0 1000.1 -1.4 56
2019-11-17 22:00:00 14.3 8 Oeste 28 Noroeste 0 1000.8 -0.7 54
2019-11-17 21:00:00 14.5 14 Oeste 30 Oeste 0 1000.9 -0.8 52
2019-11-17 20:00:00 14.6 10 Oeste 22 Oeste 0 1001.5 -0.4 49
2019-11-17 19:00:00 15.5 12 Oeste 28 Oeste 0 1001.5 -0.6 45
2019-11-17 18:00:00 16 12 Oeste 27 Oeste 0 1001.7 -0.9 44
2019-11-17 17:00:00 16.8 13 Sudoeste 30 Sudoeste 0 1001.9 -1.2 40
2019-11-17 16:00:00 17.3 12 Sudoeste 30 Sudoeste 0 1002.1 -1.8 33
2019-11-17 15:00:00 15.8 14 Sur 35 Sudoeste 0 1002.6 -2.7 36
2019-11-17 14:00:00 17.6 14 Sudoeste 34 Oeste 0 1003.1 -2.5 31
2019-11-17 13:00:00 16.4 13 Sudoeste 30 Oeste 0 1003.9 -1.8 32
2019-11-17 12:00:00 14.5 12 Oeste 31 Oeste 0 1005.3 -0.5 40
2019-11-17 11:00:00 13.5 12 Oeste 34 Oeste 0 1005.6 -0.1 42
2019-11-17 10:00:00 11.6 11 Oeste 31 Sudoeste 0 1005.7 0.1 46
2019-11-17 09:00:00 9.6 10 Sudoeste 28 Sur 0 1005.8 0.3 48
2019-11-17 08:00:00 8.2 9 Sudoeste 19 Sudoeste 0 1005.7 0.4 51
2019-11-17 07:00:00 7.3 5 Sudoeste 15 Oeste 0 1005.6 0.2 56
2019-11-17 06:00:00 8.6 9 Oeste 23 Sudoeste 0 1005.5 -0.3 51
2019-11-17 05:00:00 8.6 7 Sudoeste 17 Sur 0 1005.3 -0.4 52
2019-11-17 04:00:00 9 10 Sur 18 Sur 0 1005.4 0.1 50
2019-11-17 03:00:00 9.2 6 Sudoeste 16 Sudoeste 0 1005.8 0.5 49
2019-11-17 02:00:00 10.4 6 Sudoeste 36 Noroeste 0 1005.7 0 45
2019-11-17 01:00:00 10.8 9 Oeste 24 Oeste 0 1005.3 -0.2 44
2019-11-17 00:00:00 11.6 13 Oeste 39 Noroeste 0 1005.3 0 41
2019-11-16 23:00:00 11.4 10 Oeste 28 Oeste 0 1005.7 0.8 42
2019-11-16 22:00:00 11.1 9 Oeste 19 Oeste 0 1005.5 1.3 41
2019-11-16 21:00:00 11.6 9 Oeste 28 Noroeste 0 1005.3 1.7 41
2019-11-16 20:00:00 11.9 13 Oeste 33 Oeste 0 1004.9 2.2 41
2019-11-16 19:00:00 12.2 8 Oeste 22 Oeste 0 1004.2 2.1 38
2019-11-16 18:00:00 13.4 8 Noroeste 26 Noroeste 0 1003.6 1.9 36
2019-11-16 17:00:00 14.9 10 Noroeste 26 Noroeste 0 1002.7 0.9 33
2019-11-16 16:00:00 16.1 15 Noroeste 28 Noroeste 0 1002.1 0.5 28
2019-11-16 15:00:00 16.3 9 Sudeste 21 Este 0 1001.7 -0.6 36
2019-11-16 14:00:00 17 4 Oeste 17 Norte 0 1001.8 -0.3 32
2019-11-16 13:00:00 15.8 7 Noroeste 19 Noroeste 0 1001.6 0 34
2019-11-16 12:00:00 14.7 9 Noroeste 29 Norte 0 1002.3 1.1 38
2019-11-16 11:00:00 12.8 11 Norte 26 Norte 0 1002.1 1.9 42
2019-11-16 10:00:00 11 5 Noroeste 29 Noroeste 0 1001.6 2.8 49
2019-11-16 09:00:00 9.7 13 Noroeste 27 Noroeste 0 1001.2 3 49
2019-11-16 08:00:00 9.1 14 Noroeste 30 Noroeste 0 1000.2 2.2 52
2019-11-16 07:00:00 9.3 10 Noroeste 24 Norte 0 998.8 1.1 52
2019-11-16 06:00:00 9.8 5 Oeste 18 Noroeste 0 998.2 0.8 49
2019-11-16 05:00:00 10 9 Noroeste 30 Noroeste 0 998 0.8 48
2019-11-16 04:00:00 10 13 Norte 28 Norte 0 997.7 0.1 49
2019-11-16 03:00:00 10 11 Noroeste 27 Noroeste 0 997.4 0 49
2019-11-16 02:00:00 9.9 10 Norte 15 Norte 0 997.2 0.2 50
2019-11-16 01:00:00 9.5 4 Oeste 12 Noroeste 0 997.6 1.1 54
2019-11-16 00:00:00 8.1 4 Noroeste 9 Noroeste 0 997.4 1.2 61
2019-11-15 23:00:00 8.7 5 Sudoeste 11 Nordeste 0 997 1 59
2019-11-15 22:00:00 9 3 Sudoeste 9 Oeste 0 996.5 1 58
2019-11-15 21:00:00 10.2 4 Oeste 16 Noroeste 0 996.2 1.1 53
2019-11-15 20:00:00 10.5 6 Oeste 18 Oeste 0 996 1.4 50
2019-11-15 19:00:00 11.1 6 Oeste 18 Noroeste 0 995.5 1.3 46
2019-11-15 18:00:00 12.5 8 Oeste 22 Oeste 0 995.1 1 40
2019-11-15 17:00:00 13.7 8 Oeste 25 Oeste 0 994.6 0.2 37
2019-11-15 16:00:00 15.2 14 Oeste 30 Oeste 0 994.2 -0.5 33
2019-11-15 15:00:00 15.8 14 Oeste 32 Oeste 0 994.1 -1.3 32
2019-11-15 14:00:00 15.7 13 Oeste 33 Noroeste 0 994.4 -1.4 34
2019-11-15 13:00:00 15 14 Oeste 35 Oeste 0 994.7 -0.6 36
2019-11-15 12:00:00 14.3 16 Oeste 36 Noroeste 0 995.4 0 38
2019-11-15 11:00:00 12.6 10 Oeste 33 Noroeste 0 995.8 1.1 44
2019-11-15 10:00:00 11.5 14 Oeste 31 Noroeste 0 995.3 1.1 48
2019-11-15 09:00:00 11.1 10 Oeste 26 Oeste 0 995.4 1.6 51
2019-11-15 08:00:00 11.1 7 Oeste 27 Oeste 0 994.7 1.1 50
2019-11-15 07:00:00 10.9 5 Oeste 15 Oeste 0 994.2 1 52
2019-11-15 06:00:00 10.7 2 Oeste 22 Sudoeste 0 993.8 0.6 54
2019-11-15 05:00:00 10.7 7 Oeste 22 Oeste 0 993.6 0.9 53
2019-11-15 04:00:00 10.6 6 Sudoeste 13 Sudoeste 0 993.2 0.5 54
2019-11-15 03:00:00 11.3 8 Sudoeste 17 Sudoeste 0 993.2 1 49
2019-11-15 02:00:00 11.7 8 Sudoeste 24 Sudoeste 0 992.7 0.4 47
2019-11-15 01:00:00 12.3 6 Sudoeste 33 Sur 0 992.7 0.6 45
2019-11-15 00:00:00 12.6 13 Sudoeste 32 Sudoeste 0 992.2 0.1 42